createdAt,value
2018-07-06T00:01:01.810Z,3.30
2018-07-06T00:03:41.624Z,5.17
2018-07-06T00:06:21.295Z,5.20
2018-07-06T00:09:01.020Z,5.93
2018-07-06T00:11:40.759Z,4.23
2018-07-06T00:14:20.480Z,3.97
2018-07-06T00:17:00.190Z,4.60
2018-07-06T00:19:39.897Z,3.93
2018-07-06T00:22:20.055Z,5.67
2018-07-06T00:24:59.747Z,5.83
2018-07-06T00:27:39.419Z,6.57
2018-07-06T00:30:19.131Z,6.50
2018-07-06T00:32:58.803Z,5.30
2018-07-06T00:35:38.532Z,4.60
2018-07-06T00:38:18.217Z,6.50
2018-07-06T00:40:57.935Z,6.13
2018-07-06T00:43:37.604Z,4.77
2018-07-06T00:46:17.316Z,7.47
2018-07-06T00:48:57.027Z,7.50
2018-07-06T00:51:36.935Z,8.13
2018-07-06T00:54:16.632Z,7.10
2018-07-06T00:56:56.313Z,8.10
2018-07-06T00:59:36.000Z,8.03
2018-07-06T01:02:15.651Z,7.27
2018-07-06T01:04:55.356Z,6.17
2018-07-06T01:07:35.047Z,7.37
2018-07-06T01:10:14.881Z,9.73
2018-07-06T01:12:59.998Z,8.33
2018-07-06T01:15:40.864Z,8.27
2018-07-06T01:18:20.543Z,8.10
2018-07-06T01:21:00.656Z,9.27
2018-07-06T01:23:40.499Z,8.13
2018-07-06T01:26:20.364Z,8.70
2018-07-06T01:29:00.018Z,9.47
2018-07-06T01:31:39.687Z,9.37
2018-07-06T01:34:19.364Z,10.37
2018-07-06T01:36:59.004Z,8.37
2018-07-06T01:39:38.647Z,13.83
2018-07-06T01:42:18.294Z,12.67
2018-07-06T01:44:58.645Z,11.70
2018-07-06T01:47:38.383Z,9.67
2018-07-06T01:50:17.993Z,13.63
2018-07-06T01:52:57.578Z,12.73
2018-07-06T01:55:37.423Z,13.20
2018-07-06T01:58:17.217Z,13.43
2018-07-06T02:00:56.975Z,12.77
2018-07-06T02:03:36.563Z,13.70
2018-07-06T02:06:16.358Z,17.87
2018-07-06T02:08:56.010Z,12.67
2018-07-06T02:11:35.692Z,18.50
2018-07-06T02:14:15.536Z,17.40
2018-07-06T02:16:55.263Z,15.27
2018-07-06T02:19:34.956Z,16.43
2018-07-06T02:22:14.751Z,17.33
2018-07-06T02:24:54.446Z,15.00
2018-07-06T02:27:34.195Z,13.73
2018-07-06T02:30:13.826Z,17.33
2018-07-06T02:32:53.606Z,14.80
2018-07-06T02:35:33.316Z,17.10
2018-07-06T02:38:13.068Z,13.67
2018-07-06T02:40:52.803Z,12.73
2018-07-06T02:43:32.463Z,13.83
2018-07-06T02:46:12.287Z,10.93
2018-07-06T02:48:52.675Z,14.43
2018-07-06T02:51:32.443Z,16.80
2018-07-06T02:54:12.246Z,13.87
2018-07-06T02:56:52.140Z,14.70
2018-07-06T02:59:31.840Z,14.07
2018-07-06T03:02:11.511Z,18.27
2018-07-06T03:04:45.275Z,16.50
2018-07-06T03:07:25.082Z,15.43
2018-07-06T03:10:04.892Z,14.17
2018-07-06T03:12:38.706Z,14.60
2018-07-06T03:15:18.463Z,13.67
2018-07-06T03:17:58.265Z,16.00
2018-07-06T03:20:37.966Z,17.30
2018-07-06T03:23:17.675Z,16.63
2018-07-06T03:25:57.599Z,13.93
2018-07-06T03:28:37.457Z,13.83
2018-07-06T03:31:17.017Z,14.37
2018-07-06T03:33:56.699Z,15.20
2018-07-06T03:36:36.373Z,15.70
2018-07-06T03:39:16.035Z,14.53
2018-07-06T03:41:57.203Z,14.70
2018-07-06T03:44:36.884Z,15.73
2018-07-06T03:47:16.899Z,14.90
2018-07-06T03:49:56.686Z,14.63
2018-07-06T03:52:36.536Z,12.70
2018-07-06T03:55:20.620Z,12.20
2018-07-06T03:58:01.320Z,13.43
2018-07-06T04:00:41.111Z,14.80
2018-07-06T04:03:20.850Z,16.30
2018-07-06T04:06:00.975Z,22.13
2018-07-06T04:08:40.631Z,20.50
2018-07-06T04:11:20.387Z,17.07
2018-07-06T04:14:01.107Z,18.17
2018-07-06T04:16:40.850Z,19.93
2018-07-06T04:19:20.823Z,17.63
2018-07-06T04:22:00.752Z,27.17
2018-07-06T04:24:40.547Z,29.03
2018-07-06T04:27:20.425Z,25.60
2018-07-06T04:30:00.234Z,21.63
2018-07-06T04:32:40.009Z,25.83
2018-07-06T04:35:19.815Z,21.20
2018-07-06T04:37:59.418Z,23.60
2018-07-06T04:40:39.223Z,18.77
2018-07-06T04:43:19.348Z,28.07
2018-07-06T04:45:59.036Z,21.10
2018-07-06T04:48:39.621Z,23.50
2018-07-06T04:51:19.475Z,25.07
2018-07-06T04:53:59.293Z,22.43
2018-07-06T04:56:38.828Z,21.80
2018-07-06T04:59:18.935Z,19.27
2018-07-06T05:01:58.715Z,14.77
2018-07-06T05:04:38.586Z,22.37
2018-07-06T05:07:18.255Z,22.83
2018-07-06T05:09:57.902Z,23.07
2018-07-06T05:12:37.568Z,19.00
2018-07-06T05:15:17.261Z,19.13
2018-07-06T05:17:57.023Z,22.63
2018-07-06T05:20:36.747Z,26.73
2018-07-06T05:23:16.539Z,20.43
2018-07-06T05:25:56.168Z,24.17
2018-07-06T05:28:35.859Z,21.57
2018-07-06T05:31:15.527Z,19.27
2018-07-06T05:33:55.206Z,17.70
2018-07-06T05:36:35.471Z,17.77
2018-07-06T05:39:15.240Z,19.13
2018-07-06T05:41:55.251Z,19.97
2018-07-06T05:44:35.008Z,15.27
2018-07-06T05:47:14.744Z,17.10
2018-07-06T05:49:54.425Z,19.57
2018-07-06T05:52:34.220Z,23.27
2018-07-06T05:55:14.060Z,18.00
2018-07-06T05:57:53.898Z,24.57
2018-07-06T06:00:33.671Z,23.07
2018-07-06T06:03:13.489Z,16.73
2018-07-06T06:05:53.369Z,16.83
2018-07-06T06:08:20.793Z,23.90
2018-07-06T06:10:49.407Z,19.77
2018-07-06T06:13:18.137Z,24.57
2018-07-06T06:15:46.780Z,17.27
2018-07-06T06:18:15.356Z,19.67
2018-07-06T06:20:43.941Z,19.50
2018-07-06T06:23:12.571Z,17.87
2018-07-06T06:25:41.147Z,17.57
2018-07-06T06:28:09.734Z,21.13
2018-07-06T06:30:38.665Z,19.97
2018-07-06T06:33:07.308Z,17.03
2018-07-06T06:35:35.819Z,17.87
2018-07-06T06:38:04.484Z,14.47
2018-07-06T06:40:33.104Z,16.13
2018-07-06T06:43:01.738Z,19.30
2018-07-06T06:45:30.375Z,20.03
2018-07-06T06:47:58.927Z,14.77
2018-07-06T06:50:27.564Z,15.83
2018-07-06T06:52:56.194Z,19.03
2018-07-06T06:55:24.779Z,15.60
2018-07-06T06:57:53.525Z,17.70
2018-07-06T07:00:21.774Z,15.20
2018-07-06T07:02:50.456Z,15.70
2018-07-06T07:05:19.064Z,17.73
2018-07-06T07:07:47.714Z,18.10
2018-07-06T07:10:16.242Z,24.90
2018-07-06T07:12:44.839Z,22.47
2018-07-06T07:15:13.498Z,18.13
2018-07-06T07:17:42.070Z,16.80
2018-07-06T07:20:10.705Z,16.50
2018-07-06T07:22:39.460Z,16.53
2018-07-06T07:25:08.040Z,13.87
2018-07-06T07:27:36.628Z,14.57
2018-07-06T07:30:05.265Z,16.00
2018-07-06T07:32:33.873Z,16.23
2018-07-06T07:35:02.463Z,16.20
2018-07-06T07:37:31.079Z,21.20
2018-07-06T07:39:59.664Z,16.67
2018-07-06T07:42:28.243Z,19.63
2018-07-06T07:44:57.079Z,15.63
2018-07-06T07:47:25.653Z,16.60
2018-07-06T07:49:54.219Z,16.73
2018-07-06T07:52:34.036Z,13.93
2018-07-06T07:55:02.677Z,13.00
2018-07-06T07:57:31.225Z,13.70
2018-07-06T07:59:59.796Z,14.37
2018-07-06T08:02:28.400Z,14.37
2018-07-06T08:04:57.711Z,12.80
2018-07-06T08:07:26.281Z,12.93
2018-07-06T08:09:54.856Z,9.47
2018-07-06T08:12:23.411Z,15.33
2018-07-06T08:14:52.103Z,11.30
2018-07-06T08:17:20.716Z,10.67
2018-07-06T08:19:49.273Z,9.17
2018-07-06T08:22:17.855Z,14.93
2018-07-06T08:24:46.427Z,9.17
2018-07-06T08:27:15.015Z,13.43
2018-07-06T08:29:43.599Z,13.27
2018-07-06T08:32:12.158Z,12.00
2018-07-06T08:34:51.871Z,10.83
2018-07-06T08:37:33.126Z,12.47
2018-07-06T08:40:01.952Z,10.13
2018-07-06T08:42:31.634Z,15.13
2018-07-06T08:45:00.894Z,11.53
2018-07-06T08:47:29.360Z,14.87
2018-07-06T08:49:58.740Z,9.63
2018-07-06T08:52:27.515Z,15.60
2018-07-06T08:54:56.104Z,19.93
2018-07-06T08:57:25.732Z,11.30
2018-07-06T08:59:54.705Z,8.10
2018-07-06T09:02:23.756Z,9.30
2018-07-06T09:04:53.315Z,11.03
2018-07-06T09:07:22.095Z,13.33
2018-07-06T09:09:51.099Z,12.80
2018-07-06T09:12:19.706Z,14.33
2018-07-06T09:14:48.277Z,11.43
2018-07-06T09:17:17.784Z,8.70
2018-07-06T09:19:47.038Z,11.27
2018-07-06T09:22:15.954Z,7.03
2018-07-06T09:24:45.211Z,8.93
2018-07-06T09:27:13.797Z,12.03
2018-07-06T09:29:42.451Z,12.97
2018-07-06T09:32:11.060Z,10.03
2018-07-06T09:34:40.041Z,11.40
2018-07-06T09:37:08.795Z,7.97
2018-07-06T09:39:38.041Z,10.97
2018-07-06T09:42:06.667Z,12.33
2018-07-06T09:44:35.313Z,13.00
2018-07-06T09:47:03.967Z,12.33
2018-07-06T09:49:32.649Z,16.13
2018-07-06T09:52:01.520Z,8.73
2018-07-06T09:54:30.793Z,12.17
2018-07-06T09:56:59.511Z,9.20
2018-07-06T09:59:28.144Z,9.47
2018-07-06T10:01:56.747Z,8.67
2018-07-06T10:04:25.444Z,10.17
2018-07-06T10:06:53.953Z,10.23
2018-07-06T10:09:22.543Z,14.10
2018-07-06T10:11:51.858Z,9.57
2018-07-06T10:14:20.736Z,9.80
2018-07-06T10:16:49.315Z,18.70
2018-07-06T10:19:17.973Z,11.27
2018-07-06T10:21:46.608Z,9.63
2018-07-06T10:24:15.211Z,79.70
2018-07-06T10:26:43.818Z,14.77
2018-07-06T10:29:23.435Z,7.00
2018-07-06T10:32:30.703Z,9.07
2018-07-06T10:34:59.696Z,10.63
2018-07-06T10:37:28.767Z,8.67
2018-07-06T10:39:57.401Z,8.60
2018-07-06T10:42:25.959Z,16.57
2018-07-06T10:44:54.572Z,17.17
2018-07-06T10:47:23.149Z,16.27
2018-07-06T10:49:51.736Z,22.70
2018-07-06T10:52:20.395Z,7.77
2018-07-06T10:54:49.006Z,8.60
2018-07-06T10:57:17.587Z,9.07
2018-07-06T10:59:46.135Z,8.20
2018-07-06T11:02:14.703Z,6.87
2018-07-06T11:04:43.308Z,10.17
2018-07-06T11:07:11.871Z,10.03
2018-07-06T11:09:40.435Z,8.63
2018-07-06T11:12:09.012Z,11.07
2018-07-06T11:14:37.595Z,11.60
2018-07-06T11:17:06.195Z,11.40
2018-07-06T11:19:34.783Z,10.33
2018-07-06T11:22:03.352Z,8.37
2018-07-06T11:24:31.915Z,6.50
2018-07-06T11:27:00.514Z,7.17
2018-07-06T11:29:29.077Z,7.03
2018-07-06T11:31:57.625Z,11.90
2018-07-06T11:34:26.192Z,13.70
2018-07-06T11:36:54.759Z,8.13
2018-07-06T11:39:23.343Z,10.13
2018-07-06T11:41:51.932Z,11.53
2018-07-06T11:44:20.564Z,7.27
2018-07-06T11:46:49.125Z,7.40
2018-07-06T11:49:17.703Z,10.10
2018-07-06T11:51:46.283Z,8.10
2018-07-06T11:54:14.930Z,12.10
2018-07-06T11:56:43.484Z,6.47
2018-07-06T11:59:12.050Z,9.30
2018-07-06T12:01:40.614Z,8.90
2018-07-06T12:04:09.371Z,6.13
2018-07-06T12:06:38.844Z,6.17
2018-07-06T12:09:07.084Z,6.33
2018-07-06T12:11:35.708Z,7.73
2018-07-06T12:14:04.543Z,5.53
2018-07-06T12:16:33.211Z,7.73
2018-07-06T12:19:01.813Z,8.50
2018-07-06T12:21:30.503Z,4.57
2018-07-06T12:23:59.063Z,7.17
2018-07-06T12:26:27.640Z,5.90
2018-07-06T12:28:56.392Z,8.13
2018-07-06T12:31:24.996Z,8.67
2018-07-06T12:33:53.596Z,5.07
2018-07-06T12:36:22.215Z,5.20
2018-07-06T12:38:50.842Z,5.13
2018-07-06T12:41:19.558Z,8.00
2018-07-06T12:43:48.164Z,9.33
2018-07-06T12:46:16.767Z,5.17
2018-07-06T12:48:45.360Z,5.20
2018-07-06T12:51:13.915Z,4.43
2018-07-06T12:53:42.678Z,4.10
2018-07-06T12:56:11.294Z,4.90
2018-07-06T12:58:39.997Z,5.97
2018-07-06T13:01:08.482Z,6.47
2018-07-06T13:03:37.078Z,4.47
2018-07-06T13:06:05.855Z,2.70
2018-07-06T13:08:34.490Z,6.90
2018-07-06T13:11:03.055Z,3.87
2018-07-06T13:13:31.667Z,5.17
2018-07-06T13:16:01.109Z,4.50
2018-07-06T13:18:29.719Z,4.60
2018-07-06T13:20:58.369Z,7.10
2018-07-06T13:23:27.045Z,5.93
2018-07-06T13:25:55.629Z,8.53
2018-07-06T13:28:24.217Z,2.97
2018-07-06T13:30:52.880Z,6.30
2018-07-06T13:33:21.483Z,3.10
2018-07-06T13:35:50.115Z,3.83
2018-07-06T13:38:18.691Z,8.00
2018-07-06T13:40:47.292Z,5.70
2018-07-06T13:43:16.246Z,3.13
2018-07-06T13:45:44.861Z,5.00
2018-07-06T13:48:13.436Z,7.93
2018-07-06T13:50:42.103Z,6.67
2018-07-06T13:53:10.613Z,6.50
2018-07-06T13:55:39.220Z,2.33
2018-07-06T13:58:07.868Z,4.73
2018-07-06T14:00:36.484Z,3.80
2018-07-06T14:03:05.086Z,4.13
2018-07-06T14:05:33.723Z,5.23
2018-07-06T14:08:02.347Z,5.50
2018-07-06T14:10:31.066Z,4.63
2018-07-06T14:12:59.879Z,2.17
2018-07-06T14:15:28.548Z,7.53
2018-07-06T14:17:57.208Z,2.90
2018-07-06T14:20:26.004Z,3.60
2018-07-06T14:22:54.315Z,3.50
2018-07-06T14:25:23.016Z,3.27
2018-07-06T14:27:51.633Z,3.77
2018-07-06T14:30:20.327Z,3.60
2018-07-06T14:32:49.000Z,3.87
2018-07-06T14:35:17.643Z,2.47
2018-07-06T14:37:46.224Z,6.33
2018-07-06T14:40:14.883Z,5.30
2018-07-06T14:42:43.517Z,3.77
2018-07-06T14:45:12.155Z,5.97
2018-07-06T14:47:40.837Z,5.33
2018-07-06T14:50:09.424Z,5.17
2018-07-06T14:52:38.081Z,7.60
2018-07-06T14:55:07.711Z,2.83
2018-07-06T14:57:36.423Z,7.00
2018-07-06T15:00:05.523Z,5.97
2018-07-06T15:02:34.171Z,2.47
2018-07-06T15:05:03.182Z,11.07
2018-07-06T15:07:31.828Z,3.20
2018-07-06T15:10:00.654Z,5.53
2018-07-06T15:12:30.517Z,6.33
2018-07-06T15:14:59.558Z,4.17
2018-07-06T15:17:28.219Z,3.93
2018-07-06T15:19:57.022Z,2.93
2018-07-06T15:22:25.785Z,4.93
2018-07-06T15:24:56.617Z,4.93
2018-07-06T15:27:34.749Z,4.83
2018-07-06T15:30:11.996Z,5.10
2018-07-06T15:32:43.636Z,5.33
2018-07-06T15:35:12.273Z,4.83
2018-07-06T15:37:40.913Z,6.90
2018-07-06T15:40:09.591Z,5.80
2018-07-06T15:42:39.103Z,4.17
2018-07-06T15:45:07.773Z,3.70
2018-07-06T15:47:36.440Z,2.30
2018-07-06T15:50:05.107Z,5.20
2018-07-06T15:52:33.792Z,3.30
2018-07-06T15:55:02.457Z,2.40
2018-07-06T15:57:31.112Z,4.77
2018-07-06T15:59:59.737Z,5.47
2018-07-06T16:02:28.373Z,7.70
2018-07-06T16:04:57.001Z,5.67
2018-07-06T16:07:25.701Z,6.90
2018-07-06T16:09:55.502Z,4.93
2018-07-06T16:12:24.139Z,6.67
2018-07-06T16:14:52.728Z,4.53
2018-07-06T16:17:21.320Z,2.83
2018-07-06T16:19:49.988Z,7.60
2018-07-06T16:22:18.615Z,3.60
2018-07-06T16:24:47.400Z,3.60
2018-07-06T16:27:16.004Z,4.83
2018-07-06T16:29:45.272Z,4.50
2018-07-06T16:32:15.080Z,5.73
2018-07-06T16:34:43.691Z,4.63
2018-07-06T16:37:12.374Z,2.40
2018-07-06T16:39:40.622Z,5.23
2018-07-06T16:42:09.308Z,6.47
2018-07-06T16:44:37.915Z,5.13
2018-07-06T16:47:06.620Z,3.50
2018-07-06T16:49:35.199Z,7.03
2018-07-06T16:52:03.792Z,4.40
2018-07-06T16:54:32.373Z,4.37
2018-07-06T16:57:01.325Z,6.87
2018-07-06T16:59:29.956Z,5.63
2018-07-06T17:01:58.591Z,4.87
2018-07-06T17:04:27.250Z,7.00
2018-07-06T17:06:57.118Z,5.10
2018-07-06T17:09:25.775Z,3.93
2018-07-06T17:11:54.372Z,3.47
2018-07-06T17:14:23.890Z,4.10
2018-07-06T17:16:52.451Z,3.33
2018-07-06T17:19:21.092Z,4.20
2018-07-06T17:21:49.661Z,3.93
2018-07-06T17:24:17.981Z,8.27
2018-07-06T17:26:46.663Z,4.87
2018-07-06T17:29:15.249Z,4.40
2018-07-06T17:31:44.895Z,5.87
2018-07-06T17:34:13.536Z,8.07
2018-07-06T17:36:42.179Z,6.20
2018-07-06T17:39:10.925Z,5.57
2018-07-06T17:41:39.532Z,3.70
2018-07-06T17:44:08.161Z,3.73
2018-07-06T17:46:36.903Z,5.63
2018-07-06T17:49:06.179Z,7.33
2018-07-06T17:51:34.815Z,5.33
2018-07-06T17:54:03.066Z,5.70
2018-07-06T17:56:31.757Z,6.67
2018-07-06T17:59:00.539Z,5.17
2018-07-06T18:01:29.159Z,5.43
2018-07-06T18:03:59.003Z,4.13
2018-07-06T18:06:27.696Z,4.73
2018-07-06T18:08:56.299Z,11.87
2018-07-06T18:11:25.038Z,8.73
2018-07-06T18:13:53.743Z,5.53
2018-07-06T18:16:22.395Z,5.17
2018-07-06T18:18:51.054Z,4.97
2018-07-06T18:21:19.671Z,5.60
2018-07-06T18:23:48.287Z,5.83
2018-07-06T18:26:17.343Z,7.83
2018-07-06T18:28:45.977Z,10.83
2018-07-06T18:31:14.655Z,7.30
2018-07-06T18:33:43.769Z,5.67
2018-07-06T18:36:12.412Z,6.60
2018-07-06T18:38:41.090Z,6.53
2018-07-06T18:41:09.726Z,6.73
2018-07-06T18:43:38.392Z,7.00
2018-07-06T18:46:07.044Z,6.70
2018-07-06T18:48:35.818Z,8.23
2018-07-06T18:51:04.476Z,9.23
2018-07-06T18:53:33.063Z,4.63
2018-07-06T18:56:01.746Z,4.53
2018-07-06T18:58:30.403Z,7.43
2018-07-06T19:00:59.043Z,7.60
2018-07-06T19:03:28.279Z,10.87
2018-07-06T19:05:57.130Z,7.17
2018-07-06T19:08:25.760Z,6.83
2018-07-06T19:10:54.348Z,6.53
2018-07-06T19:13:23.017Z,3.30
2018-07-06T19:15:51.671Z,11.03
2018-07-06T19:18:40.670Z,6.87
2018-07-06T19:21:09.367Z,6.53
2018-07-06T19:23:38.026Z,10.87
2018-07-06T19:26:06.761Z,6.33
2018-07-06T19:28:35.408Z,5.27
2018-07-06T19:31:04.081Z,8.53
2018-07-06T19:33:32.719Z,10.63
2018-07-06T19:36:01.363Z,10.73
2018-07-06T19:38:30.013Z,10.57
2018-07-06T19:40:58.646Z,8.90
2018-07-06T19:43:27.254Z,9.17
2018-07-06T19:45:55.872Z,8.70
2018-07-06T19:48:24.500Z,10.20
2018-07-06T19:50:53.154Z,6.80
2018-07-06T19:53:21.788Z,6.43
2018-07-06T19:55:51.380Z,10.10
2018-07-06T19:58:20.018Z,8.00
2018-07-06T20:00:48.705Z,6.83
2018-07-06T20:03:17.380Z,7.83
2018-07-06T20:05:46.112Z,9.00
2018-07-06T20:08:14.761Z,6.93
2018-07-06T20:10:43.411Z,16.23
2018-07-06T20:13:12.087Z,10.13
2018-07-06T20:15:41.742Z,12.70
2018-07-06T20:18:10.413Z,11.50
2018-07-06T20:20:39.044Z,8.77
2018-07-06T20:23:07.663Z,11.00
2018-07-06T20:25:36.318Z,7.97
2018-07-06T20:28:05.004Z,15.03
2018-07-06T20:30:33.689Z,12.60
2018-07-06T20:33:02.283Z,8.93
2018-07-06T20:35:32.108Z,6.17
2018-07-06T20:38:04.286Z,10.00
2018-07-06T20:40:52.763Z,8.47
2018-07-06T20:43:22.992Z,10.80
2018-07-06T20:45:51.608Z,9.47
2018-07-06T20:48:20.299Z,13.47
2018-07-06T20:50:48.896Z,9.30
2018-07-06T20:53:17.678Z,11.23
2018-07-06T20:55:46.319Z,8.10
2018-07-06T20:58:14.916Z,12.00
2018-07-06T21:00:43.540Z,14.53
2018-07-06T21:03:12.174Z,10.87
2018-07-06T21:05:40.759Z,8.17
2018-07-06T21:08:09.518Z,17.23
2018-07-06T21:10:38.108Z,12.13
2018-07-06T21:13:06.717Z,15.77
2018-07-06T21:15:35.323Z,13.77
2018-07-06T21:18:03.903Z,15.67
2018-07-06T21:20:32.540Z,9.30
2018-07-06T21:23:01.183Z,12.50
2018-07-06T21:25:29.770Z,15.23
2018-07-06T21:27:58.366Z,9.63
2018-07-06T21:30:27.047Z,14.73
2018-07-06T21:32:55.641Z,15.60
2018-07-06T21:35:24.752Z,10.23
2018-07-06T21:37:53.319Z,11.70
2018-07-06T21:40:22.108Z,14.37
2018-07-06T21:42:50.691Z,11.60
2018-07-06T21:45:19.262Z,12.80
2018-07-06T21:47:47.825Z,14.73
2018-07-06T21:50:16.524Z,13.27
2018-07-06T21:52:45.204Z,11.50
2018-07-06T21:55:13.835Z,11.67
2018-07-06T21:57:42.416Z,11.70
2018-07-06T22:00:11.020Z,8.20
2018-07-06T22:02:39.643Z,10.47
2018-07-06T22:05:08.234Z,14.60
2018-07-06T22:07:36.796Z,14.40
2018-07-06T22:10:05.367Z,12.67
2018-07-06T22:12:34.047Z,12.53
2018-07-06T22:15:03.302Z,10.30
2018-07-06T22:17:31.978Z,10.27
2018-07-06T22:20:00.549Z,10.13
2018-07-06T22:22:29.217Z,9.30
2018-07-06T22:24:57.871Z,12.13
2018-07-06T22:27:26.444Z,8.87
2018-07-06T22:29:55.042Z,8.53
2018-07-06T22:32:24.308Z,13.70
2018-07-06T22:34:53.157Z,13.13
2018-07-06T22:37:22.119Z,12.90
2018-07-06T22:39:51.814Z,11.43
2018-07-06T22:42:20.439Z,14.97
2018-07-06T22:44:48.997Z,11.97
2018-07-06T22:47:17.635Z,6.00
2018-07-06T22:49:46.210Z,11.03
2018-07-06T22:52:14.790Z,9.33
2018-07-06T22:54:43.380Z,14.63
2018-07-06T22:57:11.964Z,14.10
2018-07-06T22:59:40.663Z,7.03
2018-07-06T23:02:09.330Z,10.83
2018-07-06T23:04:37.900Z,9.33
2018-07-06T23:07:06.504Z,4.83
2018-07-06T23:09:35.068Z,6.73
2018-07-06T23:12:03.623Z,7.67
2018-07-06T23:14:32.189Z,6.93
2018-07-06T23:17:00.867Z,4.77
2018-07-06T23:19:29.439Z,5.63
2018-07-06T23:21:57.990Z,5.70
2018-07-06T23:24:26.217Z,9.63
2018-07-06T23:26:54.792Z,8.57
2018-07-06T23:29:23.367Z,7.47
2018-07-06T23:31:51.947Z,9.37
2018-07-06T23:34:20.615Z,8.00
2018-07-06T23:36:49.211Z,7.43
2018-07-06T23:39:17.776Z,5.63
2018-07-06T23:41:46.355Z,8.77
2018-07-06T23:44:14.952Z,7.60
2018-07-06T23:46:43.539Z,8.33
2018-07-06T23:49:12.111Z,7.70
2018-07-06T23:51:40.695Z,8.70
2018-07-06T23:54:09.288Z,7.97
2018-07-06T23:56:37.882Z,8.97
2018-07-06T23:59:06.451Z,8.20
